sensor_id;sensor_type;location;lat;lon;timestamp;P1;durP1;ratioP1;P2;durP2;ratioP2
23175;SDS011;19910;42.652;23.332;2023-05-07T00:00:39;6.40;;;4.22;;
23175;SDS011;19910;42.652;23.332;2023-05-07T00:03:07;8.65;;;5.22;;
23175;SDS011;19910;42.652;23.332;2023-05-07T00:05:35;8.68;;;5.20;;
23175;SDS011;19910;42.652;23.332;2023-05-07T00:08:03;11.80;;;4.95;;
23175;SDS011;19910;42.652;23.332;2023-05-07T00:10:30;10.30;;;5.85;;
23175;SDS011;19910;42.652;23.332;2023-05-07T00:12:56;8.77;;;5.30;;
23175;SDS011;19910;42.652;23.332;2023-05-07T00:15:23;10.55;;;5.93;;
23175;SDS011;19910;42.652;23.332;2023-05-07T00:17:50;13.15;;;6.75;;
23175;SDS011;19910;42.652;23.332;2023-05-07T00:20:17;10.90;;;6.15;;
23175;SDS011;19910;42.652;23.332;2023-05-07T00:22:45;12.98;;;6.72;;
23175;SDS011;19910;42.652;23.332;2023-05-07T00:25:11;10.20;;;6.70;;
23175;SDS011;19910;42.652;23.332;2023-05-07T00:27:38;9.98;;;6.32;;
23175;SDS011;19910;42.652;23.332;2023-05-07T00:30:05;13.45;;;6.60;;
23175;SDS011;19910;42.652;23.332;2023-05-07T00:32:33;10.55;;;6.00;;
23175;SDS011;19910;42.652;23.332;2023-05-07T00:35:00;13.68;;;7.00;;
23175;SDS011;19910;42.652;23.332;2023-05-07T00:37:26;13.75;;;6.75;;
23175;SDS011;19910;42.652;23.332;2023-05-07T00:39:54;12.80;;;6.82;;
23175;SDS011;19910;42.652;23.332;2023-05-07T00:42:21;10.95;;;7.05;;
23175;SDS011;19910;42.652;23.332;2023-05-07T00:44:49;12.63;;;6.93;;
23175;SDS011;19910;42.652;23.332;2023-05-07T00:47:16;14.25;;;6.80;;
23175;SDS011;19910;42.652;23.332;2023-05-07T00:49:43;15.13;;;7.95;;
23175;SDS011;19910;42.652;23.332;2023-05-07T00:52:11;12.43;;;6.68;;
23175;SDS011;19910;42.652;23.332;2023-05-07T00:54:40;12.52;;;7.35;;
23175;SDS011;19910;42.652;23.332;2023-05-07T00:57:09;10.35;;;6.90;;
23175;SDS011;19910;42.652;23.332;2023-05-07T00:59:37;10.40;;;7.10;;
23175;SDS011;19910;42.652;23.332;2023-05-07T01:02:04;12.93;;;6.57;;
23175;SDS011;19910;42.652;23.332;2023-05-07T01:04:31;16.55;;;7.80;;
23175;SDS011;19910;42.652;23.332;2023-05-07T01:06:58;12.25;;;6.95;;
23175;SDS011;19910;42.652;23.332;2023-05-07T01:09:27;17.02;;;7.63;;
23175;SDS011;19910;42.652;23.332;2023-05-07T01:11:55;10.23;;;7.03;;
23175;SDS011;19910;42.652;23.332;2023-05-07T01:14:25;10.63;;;6.78;;
23175;SDS011;19910;42.652;23.332;2023-05-07T01:16:52;10.90;;;6.88;;
23175;SDS011;19910;42.652;23.332;2023-05-07T01:19:19;11.40;;;7.43;;
23175;SDS011;19910;42.652;23.332;2023-05-07T01:21:47;11.90;;;7.32;;
23175;SDS011;19910;42.652;23.332;2023-05-07T01:24:16;9.77;;;6.50;;
23175;SDS011;19910;42.652;23.332;2023-05-07T01:26:43;19.10;;;6.15;;
23175;SDS011;19910;42.652;23.332;2023-05-07T01:29:10;9.30;;;5.70;;
23175;SDS011;19910;42.652;23.332;2023-05-07T01:31:37;5.95;;;4.10;;
23175;SDS011;19910;42.652;23.332;2023-05-07T01:34:06;5.78;;;3.58;;
23175;SDS011;19910;42.652;23.332;2023-05-07T01:36:35;5.45;;;3.55;;
23175;SDS011;19910;42.652;23.332;2023-05-07T01:39:05;6.53;;;3.55;;
23175;SDS011;19910;42.652;23.332;2023-05-07T01:41:34;5.75;;;4.35;;
23175;SDS011;19910;42.652;23.332;2023-05-07T01:44:01;5.65;;;3.88;;
23175;SDS011;19910;42.652;23.332;2023-05-07T01:46:29;6.20;;;3.58;;
23175;SDS011;19910;42.652;23.332;2023-05-07T01:48:57;7.75;;;4.32;;
23175;SDS011;19910;42.652;23.332;2023-05-07T01:51:25;7.28;;;4.22;;
23175;SDS011;19910;42.652;23.332;2023-05-07T01:53:52;6.32;;;4.82;;
23175;SDS011;19910;42.652;23.332;2023-05-07T01:56:19;7.80;;;5.00;;
23175;SDS011;19910;42.652;23.332;2023-05-07T01:58:47;9.80;;;4.60;;
23175;SDS011;19910;42.652;23.332;2023-05-07T02:01:16;5.20;;;3.08;;
23175;SDS011;19910;42.652;23.332;2023-05-07T02:03:43;9.60;;;5.53;;
23175;SDS011;19910;42.652;23.332;2023-05-07T02:06:09;11.48;;;4.78;;
23175;SDS011;19910;42.652;23.332;2023-05-07T02:08:36;6.45;;;3.60;;
23175;SDS011;19910;42.652;23.332;2023-05-07T02:11:03;9.15;;;5.10;;
23175;SDS011;19910;42.652;23.332;2023-05-07T02:13:31;7.35;;;4.32;;
23175;SDS011;19910;42.652;23.332;2023-05-07T02:16:00;6.82;;;4.63;;
23175;SDS011;19910;42.652;23.332;2023-05-07T02:18:27;7.75;;;4.15;;
23175;SDS011;19910;42.652;23.332;2023-05-07T02:20:54;7.32;;;4.70;;
23175;SDS011;19910;42.652;23.332;2023-05-07T02:23:21;11.27;;;6.63;;
23175;SDS011;19910;42.652;23.332;2023-05-07T02:25:47;5.88;;;4.22;;
23175;SDS011;19910;42.652;23.332;2023-05-07T02:28:14;6.45;;;4.20;;
23175;SDS011;19910;42.652;23.332;2023-05-07T02:30:41;8.80;;;5.80;;
23175;SDS011;19910;42.652;23.332;2023-05-07T02:33:09;8.75;;;5.93;;
23175;SDS011;19910;42.652;23.332;2023-05-07T02:35:37;7.25;;;4.85;;
23175;SDS011;19910;42.652;23.332;2023-05-07T02:38:04;6.40;;;4.00;;
23175;SDS011;19910;42.652;23.332;2023-05-07T02:40:31;8.77;;;4.93;;
23175;SDS011;19910;42.652;23.332;2023-05-07T02:42:58;7.40;;;5.43;;
23175;SDS011;19910;42.652;23.332;2023-05-07T02:45:25;7.90;;;5.40;;
23175;SDS011;19910;42.652;23.332;2023-05-07T02:47:52;11.75;;;5.95;;
23175;SDS011;19910;42.652;23.332;2023-05-07T02:50:20;6.97;;;5.35;;
23175;SDS011;19910;42.652;23.332;2023-05-07T02:52:47;8.70;;;5.30;;
23175;SDS011;19910;42.652;23.332;2023-05-07T02:55:14;9.98;;;5.55;;
23175;SDS011;19910;42.652;23.332;2023-05-07T02:57:40;12.85;;;5.45;;
23175;SDS011;19910;42.652;23.332;2023-05-07T03:00:11;11.70;;;5.50;;
23175;SDS011;19910;42.652;23.332;2023-05-07T03:02:39;7.60;;;5.28;;
23175;SDS011;19910;42.652;23.332;2023-05-07T03:05:06;8.88;;;5.07;;
23175;SDS011;19910;42.652;23.332;2023-05-07T03:07:34;9.23;;;6.03;;
23175;SDS011;19910;42.652;23.332;2023-05-07T03:10:01;9.15;;;5.50;;
23175;SDS011;19910;42.652;23.332;2023-05-07T03:12:29;9.68;;;5.13;;
23175;SDS011;19910;42.652;23.332;2023-05-07T03:14:56;10.05;;;5.90;;
23175;SDS011;19910;42.652;23.332;2023-05-07T03:17:23;10.18;;;5.70;;
23175;SDS011;19910;42.652;23.332;2023-05-07T03:19:49;12.63;;;6.43;;
23175;SDS011;19910;42.652;23.332;2023-05-07T03:22:16;8.57;;;5.05;;
23175;SDS011;19910;42.652;23.332;2023-05-07T03:24:44;9.82;;;5.93;;
23175;SDS011;19910;42.652;23.332;2023-05-07T03:27:11;7.25;;;5.07;;
23175;SDS011;19910;42.652;23.332;2023-05-07T03:29:38;8.55;;;5.38;;
23175;SDS011;19910;42.652;23.332;2023-05-07T03:32:04;9.50;;;5.75;;
23175;SDS011;19910;42.652;23.332;2023-05-07T03:34:31;10.80;;;5.78;;
23175;SDS011;19910;42.652;23.332;2023-05-07T03:36:58;8.15;;;5.63;;
23175;SDS011;19910;42.652;23.332;2023-05-07T03:39:25;8.43;;;5.75;;
23175;SDS011;19910;42.652;23.332;2023-05-07T03:41:53;8.85;;;5.65;;
23175;SDS011;19910;42.652;23.332;2023-05-07T03:44:20;8.25;;;5.18;;
23175;SDS011;19910;42.652;23.332;2023-05-07T03:46:47;9.35;;;5.25;;
23175;SDS011;19910;42.652;23.332;2023-05-07T03:49:14;7.15;;;5.47;;
23175;SDS011;19910;42.652;23.332;2023-05-07T03:51:40;11.48;;;5.18;;
23175;SDS011;19910;42.652;23.332;2023-05-07T03:54:07;8.73;;;6.00;;
23175;SDS011;19910;42.652;23.332;2023-05-07T03:56:34;9.07;;;7.00;;
23175;SDS011;19910;42.652;23.332;2023-05-07T03:59:02;21.38;;;13.27;;
23175;SDS011;19910;42.652;23.332;2023-05-07T04:01:29;18.40;;;8.30;;
23175;SDS011;19910;42.652;23.332;2023-05-07T04:03:56;9.35;;;7.25;;
23175;SDS011;19910;42.652;23.332;2023-05-07T04:06:23;9.52;;;6.63;;
23175;SDS011;19910;42.652;23.332;2023-05-07T04:08:49;11.13;;;7.60;;
23175;SDS011;19910;42.652;23.332;2023-05-07T04:11:16;9.38;;;6.95;;
23175;SDS011;19910;42.652;23.332;2023-05-07T04:13:43;9.70;;;5.72;;
23175;SDS011;19910;42.652;23.332;2023-05-07T04:16:11;8.45;;;5.53;;
23175;SDS011;19910;42.652;23.332;2023-05-07T04:18:38;8.52;;;5.25;;
23175;SDS011;19910;42.652;23.332;2023-05-07T04:21:04;10.18;;;6.45;;
23175;SDS011;19910;42.652;23.332;2023-05-07T04:23:31;8.23;;;6.72;;
23175;SDS011;19910;42.652;23.332;2023-05-07T04:25:58;16.13;;;6.82;;
23175;SDS011;19910;42.652;23.332;2023-05-07T04:28:25;7.70;;;6.05;;
23175;SDS011;19910;42.652;23.332;2023-05-07T04:30:52;11.50;;;6.88;;
23175;SDS011;19910;42.652;23.332;2023-05-07T04:33:20;10.13;;;6.38;;
23175;SDS011;19910;42.652;23.332;2023-05-07T04:35:47;9.93;;;6.20;;
23175;SDS011;19910;42.652;23.332;2023-05-07T04:38:14;8.43;;;6.32;;
23175;SDS011;19910;42.652;23.332;2023-05-07T04:40:41;9.90;;;6.63;;
23175;SDS011;19910;42.652;23.332;2023-05-07T04:43:08;7.85;;;6.20;;
23175;SDS011;19910;42.652;23.332;2023-05-07T04:45:35;10.35;;;6.80;;
23175;SDS011;19910;42.652;23.332;2023-05-07T04:48:01;12.10;;;6.63;;
23175;SDS011;19910;42.652;23.332;2023-05-07T04:50:30;9.02;;;6.90;;
23175;SDS011;19910;42.652;23.332;2023-05-07T04:52:56;9.68;;;7.03;;
23175;SDS011;19910;42.652;23.332;2023-05-07T04:55:23;9.52;;;6.68;;
23175;SDS011;19910;42.652;23.332;2023-05-07T04:57:50;8.73;;;6.43;;
23175;SDS011;19910;42.652;23.332;2023-05-07T05:00:18;9.52;;;6.68;;
23175;SDS011;19910;42.652;23.332;2023-05-07T05:02:44;9.52;;;6.85;;
23175;SDS011;19910;42.652;23.332;2023-05-07T05:05:11;9.38;;;6.85;;
23175;SDS011;19910;42.652;23.332;2023-05-07T05:07:39;8.90;;;6.13;;
23175;SDS011;19910;42.652;23.332;2023-05-07T05:10:06;9.98;;;6.88;;
23175;SDS011;19910;42.652;23.332;2023-05-07T05:12:33;7.85;;;6.78;;
23175;SDS011;19910;42.652;23.332;2023-05-07T05:15:00;8.75;;;6.65;;
23175;SDS011;19910;42.652;23.332;2023-05-07T05:17:26;9.98;;;6.43;;
23175;SDS011;19910;42.652;23.332;2023-05-07T05:19:53;7.60;;;6.47;;
23175;SDS011;19910;42.652;23.332;2023-05-07T05:22:20;8.70;;;6.40;;
23175;SDS011;19910;42.652;23.332;2023-05-07T05:24:48;11.45;;;6.55;;
23175;SDS011;19910;42.652;23.332;2023-05-07T05:27:15;7.28;;;6.57;;
23175;SDS011;19910;42.652;23.332;2023-05-07T05:29:42;8.00;;;6.45;;
23175;SDS011;19910;42.652;23.332;2023-05-07T05:32:08;12.07;;;6.28;;
23175;SDS011;19910;42.652;23.332;2023-05-07T05:34:35;8.52;;;6.45;;
23175;SDS011;19910;42.652;23.332;2023-05-07T05:37:02;7.90;;;6.63;;
23175;SDS011;19910;42.652;23.332;2023-05-07T05:39:29;9.00;;;6.38;;
23175;SDS011;19910;42.652;23.332;2023-05-07T05:41:57;8.70;;;6.38;;
23175;SDS011;19910;42.652;23.332;2023-05-07T05:44:23;7.65;;;6.25;;
23175;SDS011;19910;42.652;23.332;2023-05-07T05:46:50;8.30;;;6.20;;
23175;SDS011;19910;42.652;23.332;2023-05-07T05:49:20;9.27;;;6.32;;
23175;SDS011;19910;42.652;23.332;2023-05-07T05:51:46;8.00;;;6.10;;
23175;SDS011;19910;42.652;23.332;2023-05-07T05:54:13;8.70;;;5.88;;
23175;SDS011;19910;42.652;23.332;2023-05-07T05:56:40;8.88;;;6.93;;
23175;SDS011;19910;42.652;23.332;2023-05-07T05:59:09;7.80;;;5.85;;
23175;SDS011;19910;42.652;23.332;2023-05-07T06:01:36;6.78;;;5.82;;
23175;SDS011;19910;42.652;23.332;2023-05-07T06:04:03;7.22;;;6.22;;
23175;SDS011;19910;42.652;23.332;2023-05-07T06:06:30;7.28;;;5.85;;
23175;SDS011;19910;42.652;23.332;2023-05-07T06:08:57;6.43;;;5.50;;
23175;SDS011;19910;42.652;23.332;2023-05-07T06:11:24;10.05;;;6.25;;
23175;SDS011;19910;42.652;23.332;2023-05-07T06:13:51;8.27;;;5.18;;
23175;SDS011;19910;42.652;23.332;2023-05-07T06:16:19;8.98;;;5.63;;
23175;SDS011;19910;42.652;23.332;2023-05-07T06:18:46;7.03;;;5.32;;
23175;SDS011;19910;42.652;23.332;2023-05-07T06:21:13;5.93;;;5.43;;
23175;SDS011;19910;42.652;23.332;2023-05-07T06:23:39;8.20;;;5.57;;
23175;SDS011;19910;42.652;23.332;2023-05-07T06:26:07;8.50;;;5.68;;
23175;SDS011;19910;42.652;23.332;2023-05-07T06:28:33;8.32;;;5.93;;
23175;SDS011;19910;42.652;23.332;2023-05-07T06:31:10;6.95;;;5.40;;
23175;SDS011;19910;42.652;23.332;2023-05-07T06:33:39;7.32;;;5.00;;
23175;SDS011;19910;42.652;23.332;2023-05-07T06:36:06;8.80;;;5.35;;
23175;SDS011;19910;42.652;23.332;2023-05-07T06:38:33;6.47;;;5.32;;
23175;SDS011;19910;42.652;23.332;2023-05-07T06:41:00;5.68;;;5.18;;
23175;SDS011;19910;42.652;23.332;2023-05-07T06:43:26;7.88;;;5.18;;
23175;SDS011;19910;42.652;23.332;2023-05-07T06:45:53;5.85;;;5.22;;
23175;SDS011;19910;42.652;23.332;2023-05-07T06:48:20;7.15;;;5.07;;
23175;SDS011;19910;42.652;23.332;2023-05-07T06:50:49;5.88;;;5.10;;
23175;SDS011;19910;42.652;23.332;2023-05-07T06:53:16;10.27;;;6.45;;
23175;SDS011;19910;42.652;23.332;2023-05-07T06:55:43;7.00;;;4.50;;
23175;SDS011;19910;42.652;23.332;2023-05-07T06:58:10;5.20;;;4.38;;
23175;SDS011;19910;42.652;23.332;2023-05-07T07:00:37;5.97;;;4.43;;
23175;SDS011;19910;42.652;23.332;2023-05-07T07:03:03;6.20;;;4.78;;
23175;SDS011;19910;42.652;23.332;2023-05-07T07:05:30;5.45;;;4.07;;
23175;SDS011;19910;42.652;23.332;2023-05-07T07:07:58;6.97;;;4.43;;
23175;SDS011;19910;42.652;23.332;2023-05-07T07:10:25;8.80;;;4.75;;
23175;SDS011;19910;42.652;23.332;2023-05-07T07:12:52;6.63;;;4.45;;
23175;SDS011;19910;42.652;23.332;2023-05-07T07:15:19;7.18;;;4.90;;
23175;SDS011;19910;42.652;23.332;2023-05-07T07:17:47;7.43;;;5.13;;
23175;SDS011;19910;42.652;23.332;2023-05-07T07:20:14;8.65;;;5.72;;
23175;SDS011;19910;42.652;23.332;2023-05-07T07:22:41;8.25;;;5.70;;
23175;SDS011;19910;42.652;23.332;2023-05-07T07:25:09;7.78;;;5.53;;
23175;SDS011;19910;42.652;23.332;2023-05-07T07:27:37;11.57;;;5.72;;
23175;SDS011;19910;42.652;23.332;2023-05-07T07:30:05;8.05;;;5.63;;
23175;SDS011;19910;42.652;23.332;2023-05-07T07:32:34;7.78;;;5.38;;
23175;SDS011;19910;42.652;23.332;2023-05-07T07:35:01;9.73;;;6.10;;
23175;SDS011;19910;42.652;23.332;2023-05-07T07:37:27;6.85;;;5.75;;
23175;SDS011;19910;42.652;23.332;2023-05-07T07:39:57;11.25;;;7.13;;
23175;SDS011;19910;42.652;23.332;2023-05-07T07:42:25;10.45;;;6.70;;
23175;SDS011;19910;42.652;23.332;2023-05-07T07:44:54;10.93;;;6.68;;
23175;SDS011;19910;42.652;23.332;2023-05-07T07:47:22;11.60;;;7.20;;
23175;SDS011;19910;42.652;23.332;2023-05-07T07:49:49;9.43;;;7.03;;
23175;SDS011;19910;42.652;23.332;2023-05-07T07:52:15;9.63;;;7.25;;
23175;SDS011;19910;42.652;23.332;2023-05-07T07:54:42;14.30;;;8.65;;
23175;SDS011;19910;42.652;23.332;2023-05-07T07:57:09;9.68;;;7.47;;
23175;SDS011;19910;42.652;23.332;2023-05-07T07:59:37;12.57;;;8.90;;
23175;SDS011;19910;42.652;23.332;2023-05-07T08:02:04;13.38;;;8.05;;
23175;SDS011;19910;42.652;23.332;2023-05-07T08:04:32;9.75;;;7.00;;
23175;SDS011;19910;42.652;23.332;2023-05-07T08:06:58;8.05;;;6.80;;
23175;SDS011;19910;42.652;23.332;2023-05-07T08:09:25;9.73;;;6.95;;
23175;SDS011;19910;42.652;23.332;2023-05-07T08:11:52;10.13;;;7.47;;
23175;SDS011;19910;42.652;23.332;2023-05-07T08:14:19;9.18;;;7.18;;
23175;SDS011;19910;42.652;23.332;2023-05-07T08:16:47;9.55;;;7.93;;
23175;SDS011;19910;42.652;23.332;2023-05-07T08:19:14;9.90;;;7.97;;
23175;SDS011;19910;42.652;23.332;2023-05-07T08:21:41;9.10;;;7.15;;
23175;SDS011;19910;42.652;23.332;2023-05-07T08:24:09;10.88;;;8.43;;
23175;SDS011;19910;42.652;23.332;2023-05-07T08:26:36;9.52;;;8.23;;
23175;SDS011;19910;42.652;23.332;2023-05-07T08:29:04;14.60;;;7.10;;
23175;SDS011;19910;42.652;23.332;2023-05-07T08:31:31;11.13;;;7.20;;
23175;SDS011;19910;42.652;23.332;2023-05-07T08:33:59;9.07;;;6.82;;
23175;SDS011;19910;42.652;23.332;2023-05-07T08:36:26;12.23;;;6.70;;
23175;SDS011;19910;42.652;23.332;2023-05-07T08:38:54;9.23;;;6.78;;
23175;SDS011;19910;42.652;23.332;2023-05-07T08:41:21;8.65;;;5.95;;
23175;SDS011;19910;42.652;23.332;2023-05-07T08:43:48;9.25;;;6.03;;
23175;SDS011;19910;42.652;23.332;2023-05-07T08:46:17;8.60;;;5.85;;
23175;SDS011;19910;42.652;23.332;2023-05-07T08:48:44;10.75;;;5.90;;
23175;SDS011;19910;42.652;23.332;2023-05-07T08:51:15;8.13;;;5.45;;
23175;SDS011;19910;42.652;23.332;2023-05-07T08:53:43;9.77;;;6.30;;
23175;SDS011;19910;42.652;23.332;2023-05-07T08:56:10;6.38;;;5.78;;
23175;SDS011;19910;42.652;23.332;2023-05-07T08:58:38;8.10;;;5.93;;
23175;SDS011;19910;42.652;23.332;2023-05-07T09:01:06;7.25;;;6.32;;
23175;SDS011;19910;42.652;23.332;2023-05-07T09:03:34;10.35;;;6.50;;
23175;SDS011;19910;42.652;23.332;2023-05-07T09:06:02;11.45;;;7.03;;
23175;SDS011;19910;42.652;23.332;2023-05-07T09:08:32;14.68;;;7.63;;
23175;SDS011;19910;42.652;23.332;2023-05-07T09:11:00;9.77;;;6.75;;
23175;SDS011;19910;42.652;23.332;2023-05-07T09:13:27;10.75;;;6.70;;
23175;SDS011;19910;42.652;23.332;2023-05-07T09:15:55;9.85;;;7.03;;
23175;SDS011;19910;42.652;23.332;2023-05-07T09:18:23;8.88;;;7.00;;
23175;SDS011;19910;42.652;23.332;2023-05-07T09:20:50;10.13;;;7.18;;
23175;SDS011;19910;42.652;23.332;2023-05-07T09:23:17;8.05;;;7.20;;
23175;SDS011;19910;42.652;23.332;2023-05-07T09:25:45;9.35;;;7.35;;
23175;SDS011;19910;42.652;23.332;2023-05-07T09:28:12;8.07;;;7.28;;
23175;SDS011;19910;42.652;23.332;2023-05-07T09:30:39;8.18;;;6.45;;
23175;SDS011;19910;42.652;23.332;2023-05-07T09:33:06;10.45;;;6.40;;
23175;SDS011;19910;42.652;23.332;2023-05-07T09:35:33;10.30;;;5.90;;
23175;SDS011;19910;42.652;23.332;2023-05-07T09:38:00;10.68;;;6.35;;
23175;SDS011;19910;42.652;23.332;2023-05-07T09:40:28;8.00;;;5.97;;
23175;SDS011;19910;42.652;23.332;2023-05-07T09:43:07;13.05;;;6.88;;
23175;SDS011;19910;42.652;23.332;2023-05-07T09:45:35;10.68;;;5.97;;
23175;SDS011;19910;42.652;23.332;2023-05-07T09:48:04;6.72;;;5.95;;
23175;SDS011;19910;42.652;23.332;2023-05-07T09:50:32;8.73;;;6.00;;
23175;SDS011;19910;42.652;23.332;2023-05-07T09:53:03;9.13;;;5.65;;
23175;SDS011;19910;42.652;23.332;2023-05-07T09:55:30;8.07;;;5.15;;
23175;SDS011;19910;42.652;23.332;2023-05-07T09:57:59;7.28;;;4.18;;
23175;SDS011;19910;42.652;23.332;2023-05-07T10:00:27;4.72;;;4.00;;
23175;SDS011;19910;42.652;23.332;2023-05-07T10:02:56;5.05;;;3.30;;
23175;SDS011;19910;42.652;23.332;2023-05-07T10:05:24;4.00;;;3.60;;
23175;SDS011;19910;42.652;23.332;2023-05-07T10:07:52;8.05;;;4.05;;
23175;SDS011;19910;42.652;23.332;2023-05-07T10:10:20;5.40;;;3.83;;
23175;SDS011;19910;42.652;23.332;2023-05-07T10:12:48;5.70;;;3.55;;
23175;SDS011;19910;42.652;23.332;2023-05-07T10:15:18;5.43;;;3.70;;
23175;SDS011;19910;42.652;23.332;2023-05-07T10:17:45;4.85;;;3.53;;
23175;SDS011;19910;42.652;23.332;2023-05-07T10:20:13;5.15;;;3.70;;
23175;SDS011;19910;42.652;23.332;2023-05-07T10:22:41;6.22;;;3.50;;
23175;SDS011;19910;42.652;23.332;2023-05-07T10:25:15;3.97;;;3.25;;
23175;SDS011;19910;42.652;23.332;2023-05-07T10:27:45;3.55;;;3.05;;
23175;SDS011;19910;42.652;23.332;2023-05-07T10:30:15;5.32;;;3.22;;
23175;SDS011;19910;42.652;23.332;2023-05-07T10:32:53;4.93;;;3.60;;
23175;SDS011;19910;42.652;23.332;2023-05-07T10:35:24;6.82;;;3.85;;
23175;SDS011;19910;42.652;23.332;2023-05-07T10:37:53;6.18;;;4.57;;
23175;SDS011;19910;42.652;23.332;2023-05-07T10:40:20;5.65;;;3.95;;
23175;SDS011;19910;42.652;23.332;2023-05-07T10:42:53;6.60;;;4.22;;
23175;SDS011;19910;42.652;23.332;2023-05-07T10:45:23;11.38;;;4.47;;
23175;SDS011;19910;42.652;23.332;2023-05-07T10:48:06;4.55;;;3.85;;
23175;SDS011;19910;42.652;23.332;2023-05-07T10:50:35;5.55;;;3.95;;
23175;SDS011;19910;42.652;23.332;2023-05-07T10:53:20;5.43;;;3.97;;
23175;SDS011;19910;42.652;23.332;2023-05-07T10:55:51;6.00;;;4.60;;
23175;SDS011;19910;42.652;23.332;2023-05-07T10:58:38;5.03;;;3.80;;
23175;SDS011;19910;42.652;23.332;2023-05-07T11:01:06;5.47;;;3.47;;
23175;SDS011;19910;42.652;23.332;2023-05-07T11:03:33;5.60;;;3.70;;
23175;SDS011;19910;42.652;23.332;2023-05-07T11:06:10;4.07;;;3.65;;
23175;SDS011;19910;42.652;23.332;2023-05-07T11:08:54;4.55;;;4.05;;
23175;SDS011;19910;42.652;23.332;2023-05-07T11:14:13;5.10;;;4.03;;
23175;SDS011;19910;42.652;23.332;2023-05-07T11:16:41;4.43;;;3.92;;
23175;SDS011;19910;42.652;23.332;2023-05-07T11:19:09;4.70;;;4.03;;
23175;SDS011;19910;42.652;23.332;2023-05-07T11:21:36;7.85;;;4.15;;
23175;SDS011;19910;42.652;23.332;2023-05-07T11:24:04;5.25;;;4.00;;
23175;SDS011;19910;42.652;23.332;2023-05-07T11:26:41;4.78;;;4.28;;
23175;SDS011;19910;42.652;23.332;2023-05-07T11:29:13;7.07;;;4.00;;
23175;SDS011;19910;42.652;23.332;2023-05-07T11:31:43;4.00;;;3.60;;
23175;SDS011;19910;42.652;23.332;2023-05-07T11:34:10;4.47;;;3.88;;
23175;SDS011;19910;42.652;23.332;2023-05-07T11:36:41;5.03;;;4.00;;
23175;SDS011;19910;42.652;23.332;2023-05-07T11:39:29;7.47;;;4.25;;
23175;SDS011;19910;42.652;23.332;2023-05-07T11:41:58;6.70;;;4.38;;
23175;SDS011;19910;42.652;23.332;2023-05-07T11:44:38;4.70;;;4.18;;
23175;SDS011;19910;42.652;23.332;2023-05-07T11:47:18;5.60;;;4.05;;
23175;SDS011;19910;42.652;23.332;2023-05-07T11:49:46;5.43;;;3.58;;
23175;SDS011;19910;42.652;23.332;2023-05-07T11:52:14;4.10;;;3.70;;
23175;SDS011;19910;42.652;23.332;2023-05-07T11:54:41;5.35;;;3.97;;
23175;SDS011;19910;42.652;23.332;2023-05-07T11:57:14;4.65;;;4.10;;
23175;SDS011;19910;42.652;23.332;2023-05-07T11:59:41;4.40;;;4.00;;
23175;SDS011;19910;42.652;23.332;2023-05-07T12:02:10;6.35;;;4.28;;
23175;SDS011;19910;42.652;23.332;2023-05-07T12:04:39;5.03;;;4.30;;
23175;SDS011;19910;42.652;23.332;2023-05-07T12:07:05;5.80;;;4.10;;
23175;SDS011;19910;42.652;23.332;2023-05-07T12:09:37;5.70;;;3.72;;
23175;SDS011;19910;42.652;23.332;2023-05-07T12:12:04;6.78;;;3.83;;
23175;SDS011;19910;42.652;23.332;2023-05-07T12:14:31;5.70;;;3.92;;
23175;SDS011;19910;42.652;23.332;2023-05-07T12:16:58;4.72;;;3.97;;
23175;SDS011;19910;42.652;23.332;2023-05-07T12:19:28;7.03;;;4.05;;
23175;SDS011;19910;42.652;23.332;2023-05-07T12:21:56;5.50;;;3.75;;
23175;SDS011;19910;42.652;23.332;2023-05-07T12:24:23;4.30;;;3.75;;
23175;SDS011;19910;42.652;23.332;2023-05-07T12:26:50;3.85;;;3.47;;
23175;SDS011;19910;42.652;23.332;2023-05-07T12:29:17;5.32;;;4.03;;
23175;SDS011;19910;42.652;23.332;2023-05-07T12:31:47;4.32;;;3.53;;
23175;SDS011;19910;42.652;23.332;2023-05-07T12:34:15;5.35;;;3.72;;
23175;SDS011;19910;42.652;23.332;2023-05-07T12:36:42;4.30;;;3.17;;
23175;SDS011;19910;42.652;23.332;2023-05-07T12:39:10;6.40;;;3.70;;
23175;SDS011;19910;42.652;23.332;2023-05-07T12:41:51;3.75;;;3.38;;
23175;SDS011;19910;42.652;23.332;2023-05-07T12:44:19;5.20;;;3.15;;
23175;SDS011;19910;42.652;23.332;2023-05-07T12:46:48;5.90;;;3.35;;
23175;SDS011;19910;42.652;23.332;2023-05-07T12:49:15;5.35;;;2.60;;
23175;SDS011;19910;42.652;23.332;2023-05-07T12:51:43;4.13;;;2.60;;
23175;SDS011;19910;42.652;23.332;2023-05-07T12:54:11;4.03;;;2.90;;
23175;SDS011;19910;42.652;23.332;2023-05-07T12:56:38;6.30;;;2.97;;
23175;SDS011;19910;42.652;23.332;2023-05-07T12:59:05;3.83;;;2.80;;
23175;SDS011;19910;42.652;23.332;2023-05-07T13:01:33;5.70;;;2.85;;
23175;SDS011;19910;42.652;23.332;2023-05-07T13:04:00;3.50;;;2.55;;
23175;SDS011;19910;42.652;23.332;2023-05-07T13:06:29;2.88;;;2.60;;
23175;SDS011;19910;42.652;23.332;2023-05-07T13:08:56;5.50;;;3.10;;
23175;SDS011;19910;42.652;23.332;2023-05-07T13:11:24;3.30;;;3.00;;
23175;SDS011;19910;42.652;23.332;2023-05-07T13:13:51;6.60;;;3.40;;
23175;SDS011;19910;42.652;23.332;2023-05-07T13:16:18;5.22;;;3.10;;
23175;SDS011;19910;42.652;23.332;2023-05-07T13:18:45;2.90;;;2.60;;
23175;SDS011;19910;42.652;23.332;2023-05-07T13:21:12;3.05;;;2.75;;
23175;SDS011;19910;42.652;23.332;2023-05-07T13:23:39;3.70;;;2.90;;
23175;SDS011;19910;42.652;23.332;2023-05-07T13:26:06;4.68;;;2.60;;
23175;SDS011;19910;42.652;23.332;2023-05-07T13:28:36;2.15;;;1.95;;
23175;SDS011;19910;42.652;23.332;2023-05-07T13:31:03;2.83;;;2.33;;
23175;SDS011;19910;42.652;23.332;2023-05-07T13:33:30;6.10;;;2.72;;
23175;SDS011;19910;42.652;23.332;2023-05-07T13:35:57;3.97;;;2.60;;
23175;SDS011;19910;42.652;23.332;2023-05-07T13:38:25;3.83;;;2.75;;
23175;SDS011;19910;42.652;23.332;2023-05-07T13:40:52;5.45;;;2.90;;
23175;SDS011;19910;42.652;23.332;2023-05-07T13:43:19;3.63;;;2.75;;
23175;SDS011;19910;42.652;23.332;2023-05-07T13:45:47;5.28;;;2.80;;
23175;SDS011;19910;42.652;23.332;2023-05-07T13:48:14;3.08;;;2.78;;
23175;SDS011;19910;42.652;23.332;2023-05-07T13:50:40;3.05;;;2.58;;
23175;SDS011;19910;42.652;23.332;2023-05-07T13:53:07;4.53;;;2.92;;
23175;SDS011;19910;42.652;23.332;2023-05-07T13:55:34;3.38;;;2.83;;
23175;SDS011;19910;42.652;23.332;2023-05-07T13:58:01;3.67;;;2.80;;
23175;SDS011;19910;42.652;23.332;2023-05-07T14:00:29;3.38;;;2.67;;
23175;SDS011;19910;42.652;23.332;2023-05-07T14:02:57;4.13;;;2.70;;
23175;SDS011;19910;42.652;23.332;2023-05-07T14:05:24;3.78;;;2.60;;
23175;SDS011;19910;42.652;23.332;2023-05-07T14:07:51;5.80;;;3.08;;
23175;SDS011;19910;42.652;23.332;2023-05-07T14:10:18;3.72;;;2.95;;
23175;SDS011;19910;42.652;23.332;2023-05-07T14:12:46;4.03;;;2.83;;
23175;SDS011;19910;42.652;23.332;2023-05-07T14:15:13;3.63;;;2.72;;
23175;SDS011;19910;42.652;23.332;2023-05-07T14:17:41;3.65;;;2.92;;
23175;SDS011;19910;42.652;23.332;2023-05-07T14:20:10;5.60;;;3.10;;
23175;SDS011;19910;42.652;23.332;2023-05-07T14:22:38;3.67;;;2.60;;
23175;SDS011;19910;42.652;23.332;2023-05-07T14:25:05;2.83;;;2.60;;
23175;SDS011;19910;42.652;23.332;2023-05-07T14:27:34;5.78;;;2.88;;
23175;SDS011;19910;42.652;23.332;2023-05-07T14:30:01;3.10;;;2.80;;
23175;SDS011;19910;42.652;23.332;2023-05-07T14:32:28;4.45;;;2.70;;
23175;SDS011;19910;42.652;23.332;2023-05-07T14:34:55;6.68;;;2.88;;
23175;SDS011;19910;42.652;23.332;2023-05-07T14:37:23;4.03;;;2.60;;